Accueil
METAR-TAF:

METAR-TAF

Aéroports :

Stockholm-Arlanda, Suède

Aéroport de Stockholm-Arlanda

latitude: 59-39N, longitude: 017-57E, altitude: 38 m

Observation

Le bulletin a été fait il y a 21 minutes, à 18:20 UTC
Vent 8 kt de nord/nord-est
Température 14°C
Humidité 44%
Pression 1012 hPa
Visibilité 10 km ou plus
pas de nuages en-dessous de 1500 mètres et pas de cumulonimbus.

METAR: ESSA 231820Z 02008KT CAVOK 14/02 Q1012 NOSIG

Heure: 20:41 (18:41 UTC)

Prévision

Le bulletin a été fait il y a 1 heure et 11 minutes, à 17:30 UTC
Prévision valable du 23 à 18 UTC au 24 à 18 UTC
Vent 7 kt de nord
Visibilité 10 km ou plus
pas de nuages en-dessous de 1500 mètres et pas de cumulonimbus.

TAF: ESSA 231730Z 2318/2418 01007KT CAVOK

Observations et prévisions météorologiques de plus de 4000 aéroports (messages METAR et TAF).

Les stations disponibles sont représentées par des disques jaunes et rouges sur la carte.

Passer la souris dessus pour voir le nom de la station.

Cliquer dessus pour voir les observations et prévisions météorologiques.

Pour changer de carte: cliquez sur les boutons verts avec une croix noire pour zoomer, sur le bouton vert avec un tiret pour effectuer un zoom arrière, ou sur les flèches vertes pour les cartes adjacentes.


METAR-TAF: